sensor_id;sensor_type;location;lat;lon;timestamp;P1;durP1;ratioP1;P2;durP2;ratioP2
17449;SDS011;8842;51.244;7.102;2022-11-15T00:01:41;8.00;;;7.60;;
17449;SDS011;8842;51.244;7.102;2022-11-15T00:06:56;7.80;;;7.40;;
17449;SDS011;8842;51.244;7.102;2022-11-15T00:17:11;8.70;;;8.20;;
17449;SDS011;8842;51.244;7.102;2022-11-15T00:22:15;8.33;;;7.73;;
17449;SDS011;8842;51.244;7.102;2022-11-15T00:27:27;8.27;;;7.83;;
17449;SDS011;8842;51.244;7.102;2022-11-15T00:32:31;8.53;;;7.97;;
17449;SDS011;8842;51.244;7.102;2022-11-15T00:42:46;7.90;;;7.50;;
17449;SDS011;8842;51.244;7.102;2022-11-15T00:53:01;8.33;;;7.70;;
17449;SDS011;8842;51.244;7.102;2022-11-15T01:03:16;8.60;;;8.00;;
17449;SDS011;8842;51.244;7.102;2022-11-15T01:08:21;8.53;;;8.03;;
17449;SDS011;8842;51.244;7.102;2022-11-15T01:13:33;8.20;;;7.50;;
17449;SDS011;8842;51.244;7.102;2022-11-15T01:18:38;8.50;;;7.97;;
17449;SDS011;8842;51.244;7.102;2022-11-15T01:23:52;8.77;;;8.13;;
17449;SDS011;8842;51.244;7.102;2022-11-15T01:28:57;8.57;;;8.07;;
17449;SDS011;8842;51.244;7.102;2022-11-15T01:34:09;7.80;;;7.40;;
17449;SDS011;8842;51.244;7.102;2022-11-15T01:44:41;9.03;;;8.30;;
17449;SDS011;8842;51.244;7.102;2022-11-15T01:55:01;8.90;;;8.40;;
17449;SDS011;8842;51.244;7.102;2022-11-15T02:00:09;8.47;;;8.00;;
17449;SDS011;8842;51.244;7.102;2022-11-15T02:05:22;8.60;;;8.10;;
17449;SDS011;8842;51.244;7.102;2022-11-15T02:10:27;12.00;;;8.43;;
17449;SDS011;8842;51.244;7.102;2022-11-15T02:15:33;8.70;;;8.20;;
17449;SDS011;8842;51.244;7.102;2022-11-15T02:20:53;8.60;;;8.10;;
17449;SDS011;8842;51.244;7.102;2022-11-15T02:26:36;8.97;;;8.37;;
17449;SDS011;8842;51.244;7.102;2022-11-15T02:37:00;8.70;;;8.20;;
17449;SDS011;8842;51.244;7.102;2022-11-15T02:42:07;9.07;;;8.47;;
17449;SDS011;8842;51.244;7.102;2022-11-15T02:47:20;8.97;;;8.37;;
17449;SDS011;8842;51.244;7.102;2022-11-15T02:52:26;8.13;;;7.73;;
17449;SDS011;8842;51.244;7.102;2022-11-15T02:57:39;8.00;;;7.60;;
17449;SDS011;8842;51.244;7.102;2022-11-15T03:08:26;8.50;;;8.10;;
17449;SDS011;8842;51.244;7.102;2022-11-15T03:13:33;8.60;;;8.07;;
17449;SDS011;8842;51.244;7.102;2022-11-15T03:18:47;8.00;;;7.60;;
17449;SDS011;8842;51.244;7.102;2022-11-15T03:29:08;8.90;;;8.27;;
17449;SDS011;8842;51.244;7.102;2022-11-15T03:34:16;9.10;;;8.60;;
17449;SDS011;8842;51.244;7.102;2022-11-15T03:39:36;7.80;;;7.40;;
17449;SDS011;8842;51.244;7.102;2022-11-15T03:44:42;8.40;;;7.93;;
17449;SDS011;8842;51.244;7.102;2022-11-15T03:49:57;7.70;;;7.30;;
17449;SDS011;8842;51.244;7.102;2022-11-15T03:55:05;7.83;;;7.43;;
17449;SDS011;8842;51.244;7.102;2022-11-15T04:00:18;7.87;;;7.47;;
17449;SDS011;8842;51.244;7.102;2022-11-15T04:10:34;10.93;;;7.97;;
17449;SDS011;8842;51.244;7.102;2022-11-15T04:15:38;8.50;;;8.00;;
17449;SDS011;8842;51.244;7.102;2022-11-15T04:20:52;8.23;;;7.83;;
17449;SDS011;8842;51.244;7.102;2022-11-15T04:26:15;8.40;;;8.00;;
17449;SDS011;8842;51.244;7.102;2022-11-15T04:31:28;8.27;;;7.87;;
17449;SDS011;8842;51.244;7.102;2022-11-15T04:36:32;8.70;;;8.20;;
17449;SDS011;8842;51.244;7.102;2022-11-15T04:41:43;8.73;;;8.33;;
17449;SDS011;8842;51.244;7.102;2022-11-15T04:46:48;8.43;;;8.03;;
17449;SDS011;8842;51.244;7.102;2022-11-15T04:51:59;8.73;;;8.33;;
17449;SDS011;8842;51.244;7.102;2022-11-15T04:57:04;9.30;;;8.60;;
17449;SDS011;8842;51.244;7.102;2022-11-15T05:02:15;9.00;;;8.50;;
17449;SDS011;8842;51.244;7.102;2022-11-15T05:12:30;9.37;;;8.77;;
17449;SDS011;8842;51.244;7.102;2022-11-15T05:17:35;9.07;;;8.57;;
17449;SDS011;8842;51.244;7.102;2022-11-15T05:22:46;8.63;;;8.23;;
17449;SDS011;8842;51.244;7.102;2022-11-15T05:33:04;9.97;;;9.27;;
17449;SDS011;8842;51.244;7.102;2022-11-15T05:38:08;9.03;;;8.60;;
17449;SDS011;8842;51.244;7.102;2022-11-15T05:43:20;9.57;;;8.90;;
17449;SDS011;8842;51.244;7.102;2022-11-15T05:48:25;10.17;;;9.50;;
17449;SDS011;8842;51.244;7.102;2022-11-15T05:53:29;9.47;;;8.97;;
17449;SDS011;8842;51.244;7.102;2022-11-15T05:58:42;9.80;;;9.20;;
17449;SDS011;8842;51.244;7.102;2022-11-15T06:03:46;9.37;;;8.87;;
17449;SDS011;8842;51.244;7.102;2022-11-15T06:08:58;9.40;;;8.90;;
17449;SDS011;8842;51.244;7.102;2022-11-15T06:19:13;10.17;;;9.57;;
17449;SDS011;8842;51.244;7.102;2022-11-15T06:24:18;9.60;;;9.10;;
17449;SDS011;8842;51.244;7.102;2022-11-15T06:29:29;9.00;;;8.60;;
17449;SDS011;8842;51.244;7.102;2022-11-15T06:34:34;9.40;;;8.90;;
17449;SDS011;8842;51.244;7.102;2022-11-15T06:39:45;9.80;;;9.30;;
17449;SDS011;8842;51.244;7.102;2022-11-15T06:44:49;9.90;;;9.30;;
17449;SDS011;8842;51.244;7.102;2022-11-15T06:50:01;9.40;;;8.90;;
17449;SDS011;8842;51.244;7.102;2022-11-15T07:00:18;9.43;;;8.93;;
17449;SDS011;8842;51.244;7.102;2022-11-15T07:10:35;8.90;;;8.30;;
17449;SDS011;8842;51.244;7.102;2022-11-15T07:15:39;8.50;;;8.10;;
17449;SDS011;8842;51.244;7.102;2022-11-15T07:20:51;8.40;;;8.00;;
17449;SDS011;8842;51.244;7.102;2022-11-15T07:31:08;8.50;;;8.10;;
17449;SDS011;8842;51.244;7.102;2022-11-15T07:36:12;8.40;;;8.00;;
17449;SDS011;8842;51.244;7.102;2022-11-15T07:41:16;9.10;;;8.60;;
17449;SDS011;8842;51.244;7.102;2022-11-15T07:46:28;8.20;;;7.80;;
17449;SDS011;8842;51.244;7.102;2022-11-15T07:51:32;7.60;;;7.20;;
17449;SDS011;8842;51.244;7.102;2022-11-15T07:56:37;7.30;;;7.00;;
17449;SDS011;8842;51.244;7.102;2022-11-15T08:01:51;7.60;;;7.20;;
17449;SDS011;8842;51.244;7.102;2022-11-15T08:06:55;8.33;;;7.93;;
17449;SDS011;8842;51.244;7.102;2022-11-15T08:12:07;8.67;;;8.03;;
17449;SDS011;8842;51.244;7.102;2022-11-15T08:17:12;7.90;;;7.50;;
17449;SDS011;8842;51.244;7.102;2022-11-15T08:22:17;8.00;;;7.60;;
17449;SDS011;8842;51.244;7.102;2022-11-15T08:27:22;8.47;;;7.97;;
17449;SDS011;8842;51.244;7.102;2022-11-15T08:32:26;8.80;;;8.40;;
17449;SDS011;8842;51.244;7.102;2022-11-15T08:37:30;8.87;;;8.47;;
17449;SDS011;8842;51.244;7.102;2022-11-15T08:42:35;8.80;;;8.40;;
17449;SDS011;8842;51.244;7.102;2022-11-15T08:52:50;9.70;;;9.20;;
17449;SDS011;8842;51.244;7.102;2022-11-15T08:57:54;9.67;;;9.17;;
17449;SDS011;8842;51.244;7.102;2022-11-15T09:03:01;8.90;;;8.50;;
17449;SDS011;8842;51.244;7.102;2022-11-15T09:08:14;9.13;;;8.70;;
17449;SDS011;8842;51.244;7.102;2022-11-15T09:13:19;9.10;;;8.60;;
17449;SDS011;8842;51.244;7.102;2022-11-15T09:18:23;9.77;;;9.27;;
17449;SDS011;8842;51.244;7.102;2022-11-15T09:23:37;8.70;;;8.30;;
17449;SDS011;8842;51.244;7.102;2022-11-15T09:28:41;9.07;;;8.67;;
17449;SDS011;8842;51.244;7.102;2022-11-15T09:33:45;9.30;;;8.80;;
17449;SDS011;8842;51.244;7.102;2022-11-15T09:38:57;8.90;;;8.40;;
17449;SDS011;8842;51.244;7.102;2022-11-15T09:44:07;8.60;;;8.20;;
17449;SDS011;8842;51.244;7.102;2022-11-15T09:49:29;8.70;;;8.30;;
17449;SDS011;8842;51.244;7.102;2022-11-15T10:00:19;8.80;;;8.40;;
17449;SDS011;8842;51.244;7.102;2022-11-15T10:10:37;9.50;;;9.00;;
17449;SDS011;8842;51.244;7.102;2022-11-15T10:15:45;10.03;;;9.40;;
17449;SDS011;8842;51.244;7.102;2022-11-15T10:20:58;8.93;;;8.53;;
17449;SDS011;8842;51.244;7.102;2022-11-15T10:31:25;9.40;;;8.90;;
17449;SDS011;8842;51.244;7.102;2022-11-15T10:36:30;9.50;;;9.00;;
17449;SDS011;8842;51.244;7.102;2022-11-15T10:41:43;9.63;;;9.07;;
17449;SDS011;8842;51.244;7.102;2022-11-15T10:46:48;9.50;;;9.00;;
17449;SDS011;8842;51.244;7.102;2022-11-15T10:52:04;8.93;;;8.53;;
17449;SDS011;8842;51.244;7.102;2022-11-15T10:57:22;8.70;;;8.30;;
17449;SDS011;8842;51.244;7.102;2022-11-15T11:07:41;9.57;;;9.07;;
17449;SDS011;8842;51.244;7.102;2022-11-15T11:12:49;9.30;;;8.80;;
17449;SDS011;8842;51.244;7.102;2022-11-15T11:18:02;9.30;;;8.80;;
17449;SDS011;8842;51.244;7.102;2022-11-15T11:28:32;9.03;;;8.63;;
17449;SDS011;8842;51.244;7.102;2022-11-15T11:38:53;9.07;;;8.67;;
17449;SDS011;8842;51.244;7.102;2022-11-15T11:49:16;9.30;;;8.80;;
17449;SDS011;8842;51.244;7.102;2022-11-15T11:54:25;8.90;;;8.50;;
17449;SDS011;8842;51.244;7.102;2022-11-15T11:59:41;8.90;;;8.50;;
17449;SDS011;8842;51.244;7.102;2022-11-15T12:04:53;9.07;;;8.67;;
17449;SDS011;8842;51.244;7.102;2022-11-15T12:15:13;8.90;;;8.50;;
17449;SDS011;8842;51.244;7.102;2022-11-15T12:20:21;8.93;;;8.53;;
17449;SDS011;8842;51.244;7.102;2022-11-15T12:25:28;8.80;;;8.40;;
17449;SDS011;8842;51.244;7.102;2022-11-15T12:30:43;9.20;;;8.70;;
17449;SDS011;8842;51.244;7.102;2022-11-15T12:35:57;8.93;;;8.53;;
17449;SDS011;8842;51.244;7.102;2022-11-15T12:41:13;8.50;;;8.10;;
17449;SDS011;8842;51.244;7.102;2022-11-15T12:46:26;9.10;;;8.63;;
17449;SDS011;8842;51.244;7.102;2022-11-15T12:52:04;9.30;;;8.80;;
17449;SDS011;8842;51.244;7.102;2022-11-15T12:57:27;9.37;;;8.87;;
17449;SDS011;8842;51.244;7.102;2022-11-15T13:02:53;8.60;;;8.20;;
17449;SDS011;8842;51.244;7.102;2022-11-15T13:08:32;8.80;;;8.40;;
17449;SDS011;8842;51.244;7.102;2022-11-15T13:13:49;9.07;;;8.63;;
17449;SDS011;8842;51.244;7.102;2022-11-15T13:24:09;8.60;;;8.20;;
17449;SDS011;8842;51.244;7.102;2022-11-15T13:29:19;9.50;;;9.00;;
17449;SDS011;8842;51.244;7.102;2022-11-15T13:39:36;9.53;;;9.03;;
17449;SDS011;8842;51.244;7.102;2022-11-15T13:44:41;8.70;;;8.30;;
17449;SDS011;8842;51.244;7.102;2022-11-15T13:50:05;8.70;;;8.30;;
17449;SDS011;8842;51.244;7.102;2022-11-15T13:55:23;9.00;;;8.60;;
17449;SDS011;8842;51.244;7.102;2022-11-15T14:00:32;10.83;;;10.13;;
17449;SDS011;8842;51.244;7.102;2022-11-15T14:05:45;9.40;;;8.90;;
17449;SDS011;8842;51.244;7.102;2022-11-15T14:16:21;7.93;;;7.43;;
17449;SDS011;8842;51.244;7.102;2022-11-15T14:21:27;9.00;;;8.60;;
17449;SDS011;8842;51.244;7.102;2022-11-15T14:26:47;9.40;;;8.90;;
17449;SDS011;8842;51.244;7.102;2022-11-15T14:31:52;9.23;;;8.73;;
17449;SDS011;8842;51.244;7.102;2022-11-15T14:37:08;9.47;;;8.97;;
17449;SDS011;8842;51.244;7.102;2022-11-15T14:42:21;8.27;;;7.87;;
17449;SDS011;8842;51.244;7.102;2022-11-15T14:47:33;9.90;;;9.40;;
17449;SDS011;8842;51.244;7.102;2022-11-15T14:52:37;9.90;;;9.40;;
17449;SDS011;8842;51.244;7.102;2022-11-15T14:57:42;9.30;;;8.80;;
17449;SDS011;8842;51.244;7.102;2022-11-15T15:02:46;9.43;;;8.93;;
17449;SDS011;8842;51.244;7.102;2022-11-15T15:07:51;9.03;;;8.53;;
17449;SDS011;8842;51.244;7.102;2022-11-15T15:13:03;9.30;;;8.80;;
17449;SDS011;8842;51.244;7.102;2022-11-15T15:18:18;9.33;;;8.83;;
17449;SDS011;8842;51.244;7.102;2022-11-15T15:23:23;8.70;;;8.30;;
17449;SDS011;8842;51.244;7.102;2022-11-15T15:33:40;9.40;;;8.90;;
17449;SDS011;8842;51.244;7.102;2022-11-15T15:38:44;9.10;;;8.70;;
17449;SDS011;8842;51.244;7.102;2022-11-15T15:43:49;9.07;;;8.67;;
17449;SDS011;8842;51.244;7.102;2022-11-15T15:49:01;7.97;;;7.57;;
17449;SDS011;8842;51.244;7.102;2022-11-15T15:54:05;9.10;;;8.60;;
17449;SDS011;8842;51.244;7.102;2022-11-15T15:59:09;9.00;;;8.50;;
17449;SDS011;8842;51.244;7.102;2022-11-15T16:04:21;9.20;;;8.57;;
17449;SDS011;8842;51.244;7.102;2022-11-15T16:09:25;8.83;;;8.23;;
17449;SDS011;8842;51.244;7.102;2022-11-15T16:14:49;8.53;;;8.13;;
17449;SDS011;8842;51.244;7.102;2022-11-15T16:19:53;6.70;;;6.40;;
17449;SDS011;8842;51.244;7.102;2022-11-15T16:30:09;8.77;;;8.23;;
17449;SDS011;8842;51.244;7.102;2022-11-15T16:35:23;9.13;;;8.50;;
17449;SDS011;8842;51.244;7.102;2022-11-15T16:45:38;9.03;;;8.57;;
17449;SDS011;8842;51.244;7.102;2022-11-15T16:50:42;8.40;;;8.00;;
17449;SDS011;8842;51.244;7.102;2022-11-15T16:55:48;9.10;;;8.60;;
17449;SDS011;8842;51.244;7.102;2022-11-15T17:00:52;8.10;;;7.70;;
17449;SDS011;8842;51.244;7.102;2022-11-15T17:05:58;8.10;;;7.70;;
17449;SDS011;8842;51.244;7.102;2022-11-15T17:11:04;8.70;;;8.30;;
17449;SDS011;8842;51.244;7.102;2022-11-15T17:16:16;8.97;;;8.50;;
17449;SDS011;8842;51.244;7.102;2022-11-15T17:21:21;8.97;;;8.50;;
17449;SDS011;8842;51.244;7.102;2022-11-15T17:26:25;9.63;;;9.00;;
17449;SDS011;8842;51.244;7.102;2022-11-15T17:31:39;9.07;;;8.57;;
17449;SDS011;8842;51.244;7.102;2022-11-15T17:41:55;9.10;;;8.60;;
17449;SDS011;8842;51.244;7.102;2022-11-15T17:46:59;9.93;;;9.17;;
17449;SDS011;8842;51.244;7.102;2022-11-15T17:52:03;8.70;;;8.20;;
17449;SDS011;8842;51.244;7.102;2022-11-15T17:57:15;8.57;;;8.17;;
17449;SDS011;8842;51.244;7.102;2022-11-15T18:02:19;8.10;;;7.70;;
17449;SDS011;8842;51.244;7.102;2022-11-15T18:12:34;8.67;;;8.17;;
17449;SDS011;8842;51.244;7.102;2022-11-15T18:22:52;7.90;;;7.50;;
17449;SDS011;8842;51.244;7.102;2022-11-15T18:28:04;7.73;;;7.27;;
17449;SDS011;8842;51.244;7.102;2022-11-15T18:38:19;7.87;;;7.47;;
17449;SDS011;8842;51.244;7.102;2022-11-15T18:43:24;7.83;;;7.10;;
17449;SDS011;8842;51.244;7.102;2022-11-15T18:48:29;7.00;;;6.70;;
17449;SDS011;8842;51.244;7.102;2022-11-15T18:53:33;7.20;;;6.90;;
17449;SDS011;8842;51.244;7.102;2022-11-15T18:58:46;7.23;;;6.83;;
17449;SDS011;8842;51.244;7.102;2022-11-15T19:03:52;5.80;;;5.50;;
17449;SDS011;8842;51.244;7.102;2022-11-15T19:08:58;6.73;;;6.40;;
17449;SDS011;8842;51.244;7.102;2022-11-15T19:14:03;7.43;;;6.83;;
17449;SDS011;8842;51.244;7.102;2022-11-15T19:19:11;8.40;;;7.67;;
17449;SDS011;8842;51.244;7.102;2022-11-15T19:24:25;7.20;;;6.80;;
17449;SDS011;8842;51.244;7.102;2022-11-15T19:29:31;7.93;;;7.53;;
17449;SDS011;8842;51.244;7.102;2022-11-15T19:34:35;9.17;;;8.67;;
17449;SDS011;8842;51.244;7.102;2022-11-15T19:39:47;8.60;;;8.20;;
17449;SDS011;8842;51.244;7.102;2022-11-15T19:44:51;8.17;;;7.77;;
17449;SDS011;8842;51.244;7.102;2022-11-15T19:49:56;8.50;;;7.90;;
17449;SDS011;8842;51.244;7.102;2022-11-15T19:55:00;8.00;;;7.60;;
17449;SDS011;8842;51.244;7.102;2022-11-15T20:00:09;8.90;;;8.40;;
17449;SDS011;8842;51.244;7.102;2022-11-15T20:05:24;8.60;;;8.20;;
17449;SDS011;8842;51.244;7.102;2022-11-15T20:15:39;8.80;;;8.30;;
17449;SDS011;8842;51.244;7.102;2022-11-15T20:20:45;8.90;;;8.50;;
17449;SDS011;8842;51.244;7.102;2022-11-15T20:25:57;9.50;;;8.97;;
17449;SDS011;8842;51.244;7.102;2022-11-15T20:31:01;9.10;;;8.60;;
17449;SDS011;8842;51.244;7.102;2022-11-15T20:36:16;8.90;;;8.50;;
17449;SDS011;8842;51.244;7.102;2022-11-15T20:46:31;9.30;;;8.80;;
17449;SDS011;8842;51.244;7.102;2022-11-15T20:51:35;11.40;;;10.70;;
17449;SDS011;8842;51.244;7.102;2022-11-15T20:56:47;11.07;;;10.27;;
17449;SDS011;8842;51.244;7.102;2022-11-15T21:01:52;9.93;;;9.43;;
17449;SDS011;8842;51.244;7.102;2022-11-15T21:07:06;8.50;;;8.10;;
17449;SDS011;8842;51.244;7.102;2022-11-15T21:12:10;9.60;;;9.00;;
17449;SDS011;8842;51.244;7.102;2022-11-15T21:17:22;9.53;;;9.03;;
17449;SDS011;8842;51.244;7.102;2022-11-15T21:22:26;9.73;;;9.00;;
17449;SDS011;8842;51.244;7.102;2022-11-15T21:27:38;9.77;;;9.20;;
17449;SDS011;8842;51.244;7.102;2022-11-15T21:32:43;9.33;;;8.83;;
17449;SDS011;8842;51.244;7.102;2022-11-15T21:37:55;9.30;;;8.80;;
17449;SDS011;8842;51.244;7.102;2022-11-15T21:48:12;9.20;;;8.73;;
17449;SDS011;8842;51.244;7.102;2022-11-15T21:53:17;10.00;;;9.40;;
17449;SDS011;8842;51.244;7.102;2022-11-15T21:58:31;9.70;;;9.20;;
17449;SDS011;8842;51.244;7.102;2022-11-15T22:03:35;10.60;;;10.00;;
17449;SDS011;8842;51.244;7.102;2022-11-15T22:08:47;11.83;;;11.13;;
17449;SDS011;8842;51.244;7.102;2022-11-15T22:19:04;11.07;;;10.47;;
17449;SDS011;8842;51.244;7.102;2022-11-15T22:24:09;11.20;;;10.60;;
17449;SDS011;8842;51.244;7.102;2022-11-15T22:29:23;10.33;;;9.83;;
17449;SDS011;8842;51.244;7.102;2022-11-15T22:39:41;10.30;;;9.80;;
17449;SDS011;8842;51.244;7.102;2022-11-15T22:44:45;10.90;;;10.20;;
17449;SDS011;8842;51.244;7.102;2022-11-15T22:50:07;10.93;;;10.33;;
17449;SDS011;8842;51.244;7.102;2022-11-15T22:55:11;11.90;;;11.30;;
17449;SDS011;8842;51.244;7.102;2022-11-15T23:00:23;10.93;;;10.33;;
17449;SDS011;8842;51.244;7.102;2022-11-15T23:05:27;10.90;;;10.30;;
17449;SDS011;8842;51.244;7.102;2022-11-15T23:10:42;10.53;;;10.03;;
17449;SDS011;8842;51.244;7.102;2022-11-15T23:16:02;11.30;;;10.70;;
17449;SDS011;8842;51.244;7.102;2022-11-15T23:26:49;11.10;;;10.50;;
17449;SDS011;8842;51.244;7.102;2022-11-15T23:31:55;11.60;;;11.00;;
17449;SDS011;8842;51.244;7.102;2022-11-15T23:37:10;12.23;;;11.53;;
17449;SDS011;8842;51.244;7.102;2022-11-15T23:42:16;11.90;;;11.30;;
17449;SDS011;8842;51.244;7.102;2022-11-15T23:47:31;11.63;;;11.03;;
17449;SDS011;8842;51.244;7.102;2022-11-15T23:57:54;11.80;;;11.20;;
